Impacts METAR Board INFO
IDs:

KCLE - Cleveland/Hopkins In, OH, US

Updated at: 0419 UTC 18 Jan 2018
Potential Impact None Slight Moderate High
Time17/16Z 17/17Z 17/18Z 17/19Z 17/20Z 17/21Z 17/22Z 17/23Z 18/00Z 18/01Z 18/02Z 18/03Z 18/04Z
VIS9 10 10 10 10 10 10 10 10 10 10 10 10
CIG-- -- -- 43 42 42 -- -- -- -- -- -- --
CoverFEWSCTSCTOVCOVCOVCCLRCLRCLRCLRCLRCLRFEW
FltCatVFRVFRVFRVFRVFRVFRVFRVFRVFRVFRVFRVFRVFR
WX--------------------------
WDir220230230240240220210210220220220220210
WSpd8 9 10 10 10 9 10 11 8 13 10 9 11
WGst-- -- -- -- -- -- -- -- 18 -- -- -- --
Raw hourly METARs
KCLE 171551Z 22008KT 9SM FEW030 M10/M14 A3051 RMK AO2 SLP349 T11001139
KCLE 171651Z 23009KT 10SM FEW017 SCT030 M08/M13 A3049 RMK AO2 SLP341 T10831128
KCLE 171751Z 23010KT 10SM SCT030 M08/M12 A3045 RMK AO2 SLP329 4/003 933005 60000 T10781122 11072 21139 58017
KCLE 171851Z 24010KT 10SM OVC043 M07/M13 A3043 RMK AO2 SLP320 T10721128
KCLE 171951Z 24010KT 10SM FEW034 OVC042 M07/M13 A3042 RMK AO2 SLP319 T10671128
KCLE 172051Z 22009KT 10SM OVC042 M07/M13 A3042 RMK AO2 SLP316 T10671128 56012
KCLE 172151Z 21010KT 10SM CLR M07/M13 A3040 RMK AO2 SLP310 T10721128
KCLE 172251Z 21011KT 10SM CLR M08/M12 A3039 RMK AO2 SLP306 T10781122
KCLE 172351Z 22008G18KT 10SM CLR M09/M13 A3038 RMK AO2 SLP302 4/003 T10891133 11067 21089 56013
KCLE 180051Z 22013KT 10SM CLR M09/M13 A3035 RMK AO2 SLP295 T10891133
KCLE 180151Z 22010KT 10SM CLR M09/M14 A3034 RMK AO2 SLP290 T10891139
KCLE 180251Z 22009KT 10SM CLR M09/M14 A3032 RMK AO2 SLP283 T10941139 56018
KCLE 180351Z 21011KT 10SM FEW110 M09/M14 A3030 RMK AO2 SLP275 T10941139